createdAt,value
2023-03-05T00:02:07.033Z,28.13
2023-03-05T00:04:33.783Z,19.67
2023-03-05T00:07:00.556Z,27.80
2023-03-05T00:09:27.280Z,18.47
2023-03-05T00:11:53.935Z,24.97
2023-03-05T00:14:20.527Z,20.33
2023-03-05T00:16:47.479Z,19.20
2023-03-05T00:19:14.051Z,18.63
2023-03-05T00:21:42.173Z,21.93
2023-03-05T00:24:14.182Z,21.03
2023-03-05T00:26:41.070Z,23.30
2023-03-05T00:29:09.167Z,25.47
2023-03-05T00:31:37.270Z,21.60
2023-03-05T00:34:11.258Z,21.07
2023-03-05T00:36:47.754Z,20.83
2023-03-05T00:39:15.737Z,22.40
2023-03-05T00:41:42.371Z,28.87
2023-03-05T00:44:09.318Z,22.83
2023-03-05T00:46:36.695Z,23.80
2023-03-05T00:49:03.703Z,28.10
2023-03-05T00:51:30.292Z,21.10
2023-03-05T00:53:57.137Z,23.90
2023-03-05T00:56:23.936Z,23.93
2023-03-05T00:58:50.798Z,24.60
2023-03-05T01:01:17.511Z,21.07
2023-03-05T01:03:44.155Z,19.20
2023-03-05T01:06:13.262Z,26.00
2023-03-05T01:08:40.063Z,22.73
2023-03-05T01:11:07.420Z,19.80
2023-03-05T01:13:34.185Z,32.00
2023-03-05T01:16:01.500Z,18.00
2023-03-05T01:18:28.244Z,23.93
2023-03-05T01:20:55.104Z,21.63
2023-03-05T01:23:21.692Z,21.50
2023-03-05T01:25:59.260Z,22.90
2023-03-05T01:28:26.915Z,27.27
2023-03-05T01:30:53.699Z,23.47
2023-03-05T01:33:20.461Z,29.13
2023-03-05T01:35:48.285Z,22.00
2023-03-05T01:38:15.376Z,20.47
2023-03-05T01:40:45.460Z,26.30
2023-03-05T01:43:12.258Z,23.30
2023-03-05T01:45:59.579Z,25.37
2023-03-05T01:48:27.036Z,25.00
2023-03-05T01:50:53.920Z,24.10
2023-03-05T01:53:20.646Z,29.93
2023-03-05T01:55:47.340Z,26.87
2023-03-05T01:58:17.000Z,26.40
2023-03-05T02:00:50.415Z,20.00
2023-03-05T02:03:17.226Z,25.50
2023-03-05T02:05:44.499Z,26.50
2023-03-05T02:08:16.851Z,24.53
2023-03-05T02:10:56.434Z,33.27
2023-03-05T02:13:29.594Z,22.43
2023-03-05T02:15:58.858Z,23.23
2023-03-05T02:18:26.604Z,28.97
2023-03-05T02:20:59.607Z,24.30
2023-03-05T02:23:29.849Z,20.37
2023-03-05T02:25:56.635Z,23.87
2023-03-05T02:28:24.707Z,21.43
2023-03-05T02:30:51.416Z,31.47
2023-03-05T02:33:18.879Z,25.03
2023-03-05T02:35:46.450Z,28.97
2023-03-05T02:38:15.126Z,22.33
2023-03-05T02:40:42.542Z,24.80
2023-03-05T02:43:09.870Z,20.83
2023-03-05T02:45:37.248Z,23.60
2023-03-05T02:48:04.478Z,24.13
2023-03-05T02:50:32.376Z,19.20
2023-03-05T02:52:59.136Z,26.00
2023-03-05T02:55:26.121Z,17.77
2023-03-05T02:57:52.774Z,22.13
2023-03-05T03:00:19.619Z,14.53
2023-03-05T03:02:46.274Z,15.73
2023-03-05T03:05:12.897Z,18.33
2023-03-05T03:07:39.545Z,16.47
2023-03-05T03:10:06.723Z,10.90
2023-03-05T03:12:38.240Z,13.70
2023-03-05T03:15:05.573Z,11.10
2023-03-05T03:17:34.683Z,9.20
2023-03-05T03:20:02.614Z,12.67
2023-03-05T03:22:29.489Z,13.53
2023-03-05T03:24:56.419Z,11.13
2023-03-05T03:27:23.422Z,10.33
2023-03-05T03:29:50.008Z,7.53
2023-03-05T03:32:16.888Z,9.80
2023-03-05T03:34:44.672Z,8.07
2023-03-05T03:37:11.788Z,9.97
2023-03-05T03:39:38.432Z,5.60
2023-03-05T03:42:05.579Z,8.90
2023-03-05T03:44:32.289Z,4.90
2023-03-05T03:46:58.864Z,5.03
2023-03-05T03:49:28.471Z,7.70
2023-03-05T03:51:55.529Z,5.87
2023-03-05T03:54:22.829Z,4.37
2023-03-05T03:56:49.523Z,4.00
2023-03-05T03:59:16.331Z,6.83
2023-03-05T04:01:43.141Z,3.97
2023-03-05T04:04:11.749Z,8.33
2023-03-05T04:06:39.034Z,2.63
2023-03-05T04:09:08.161Z,5.40
2023-03-05T04:11:36.060Z,7.97
2023-03-05T04:14:03.580Z,9.10
2023-03-05T04:16:30.431Z,3.90
2023-03-05T04:18:57.095Z,7.83
2023-03-05T04:21:23.967Z,3.63
2023-03-05T04:23:50.553Z,5.10
2023-03-05T04:26:17.153Z,3.57
2023-03-05T04:28:44.064Z,5.17
2023-03-05T04:31:10.635Z,4.73
2023-03-05T04:33:37.219Z,3.90
2023-03-05T04:36:04.149Z,9.13
2023-03-05T04:38:30.782Z,6.47
2023-03-05T04:40:57.381Z,4.07
2023-03-05T04:43:23.998Z,3.00
2023-03-05T04:45:50.592Z,4.03
2023-03-05T04:48:17.200Z,4.30
2023-03-05T04:50:43.803Z,3.83
2023-03-05T04:53:10.381Z,3.83
2023-03-05T04:55:36.991Z,5.60
2023-03-05T04:58:03.802Z,3.30
2023-03-05T05:00:30.463Z,3.47
2023-03-05T05:02:57.237Z,22.27
2023-03-05T05:05:27.538Z,7.93
2023-03-05T05:07:56.548Z,5.03
2023-03-05T05:10:27.930Z,2.93
2023-03-05T05:12:54.766Z,4.70
2023-03-05T05:15:21.538Z,4.13
2023-03-05T05:17:48.571Z,2.73
2023-03-05T05:20:16.674Z,4.00
2023-03-05T05:22:44.046Z,5.50
2023-03-05T05:25:11.318Z,6.37
2023-03-05T05:27:39.405Z,6.50
2023-03-05T05:30:07.648Z,3.67
2023-03-05T05:32:34.883Z,3.90
2023-03-05T05:35:01.940Z,4.60
2023-03-05T05:37:29.801Z,6.43
2023-03-05T05:39:56.476Z,2.30
2023-03-05T05:42:25.338Z,3.20
2023-03-05T05:44:52.132Z,3.40
2023-03-05T05:47:19.178Z,4.60
2023-03-05T05:49:45.850Z,4.13
2023-03-05T05:52:13.375Z,2.93
2023-03-05T05:54:40.104Z,5.63
2023-03-05T05:57:07.286Z,2.03
2023-03-05T05:59:33.999Z,4.40
2023-03-05T06:02:00.651Z,9.93
2023-03-05T06:04:27.254Z,8.37
2023-03-05T06:06:53.895Z,4.70
2023-03-05T06:09:20.863Z,5.07
2023-03-05T06:11:47.660Z,2.90
2023-03-05T06:14:14.348Z,4.70
2023-03-05T06:16:42.237Z,6.03
2023-03-05T06:19:11.695Z,7.60
2023-03-05T06:21:38.472Z,3.93
2023-03-05T06:24:05.527Z,2.73
2023-03-05T06:26:32.673Z,4.03
2023-03-05T06:28:59.324Z,3.80
2023-03-05T06:31:28.238Z,5.10
2023-03-05T06:33:58.058Z,2.20
2023-03-05T06:36:25.935Z,4.13
2023-03-05T06:38:53.816Z,2.80
2023-03-05T06:41:28.969Z,2.77
2023-03-05T06:43:56.309Z,2.27
2023-03-05T06:46:24.567Z,2.57
2023-03-05T06:48:52.408Z,2.53
2023-03-05T06:51:24.935Z,3.00
2023-03-05T06:53:53.227Z,2.37
2023-03-05T06:56:21.053Z,2.43
2023-03-05T06:58:49.684Z,3.80
2023-03-05T07:01:16.699Z,15.90
2023-03-05T07:03:43.765Z,108.03
2023-03-05T07:06:13.584Z,40.40
2023-03-05T07:08:40.304Z,22.00
2023-03-05T07:11:11.817Z,12.10
2023-03-05T07:13:38.498Z,7.80
2023-03-05T07:16:10.559Z,4.70
2023-03-05T07:18:37.225Z,2.30
2023-03-05T07:21:08.681Z,3.57
2023-03-05T07:23:36.656Z,6.93
2023-03-05T07:26:05.144Z,4.30
2023-03-05T07:28:32.275Z,9.87
2023-03-05T07:31:12.015Z,22.73
2023-03-05T07:33:38.723Z,116.00
2023-03-05T07:36:08.484Z,49.13
2023-03-05T07:38:35.147Z,4.63
2023-03-05T07:41:06.155Z,5.90
2023-03-05T07:43:32.761Z,3.77
2023-03-05T07:45:59.492Z,4.30
2023-03-05T07:48:26.167Z,1.87
2023-03-05T07:51:01.670Z,4.07
2023-03-05T07:53:28.360Z,3.30
2023-03-05T07:55:55.050Z,2.40
2023-03-05T07:58:21.675Z,4.40
2023-03-05T08:00:48.817Z,4.43
2023-03-05T08:03:15.427Z,5.47
2023-03-05T08:05:42.574Z,5.07
2023-03-05T08:08:09.695Z,4.20
2023-03-05T08:10:37.690Z,3.30
2023-03-05T08:13:06.592Z,5.00
2023-03-05T08:15:33.337Z,1.90
2023-03-05T08:18:00.159Z,11.03
2023-03-05T08:20:26.852Z,3.90
2023-03-05T08:22:53.449Z,7.83
2023-03-05T08:25:20.326Z,9.97
2023-03-05T08:27:48.130Z,5.53
2023-03-05T08:30:18.627Z,8.37
2023-03-05T08:32:45.271Z,20.87
2023-03-05T08:35:12.140Z,11.13
2023-03-05T08:37:38.829Z,3.37
2023-03-05T08:40:06.312Z,2.30
2023-03-05T08:42:33.047Z,2.53
2023-03-05T08:44:59.707Z,2.23
2023-03-05T08:47:27.415Z,6.60
2023-03-05T08:49:55.650Z,4.90
2023-03-05T08:52:22.710Z,1.97
2023-03-05T08:54:49.388Z,4.60
2023-03-05T08:57:16.305Z,1.73
2023-03-05T08:59:42.890Z,3.47
2023-03-05T09:02:12.739Z,2.33
2023-03-05T09:04:39.679Z,2.70
2023-03-05T09:07:06.605Z,1.90
2023-03-05T09:09:34.033Z,5.23
2023-03-05T09:12:01.753Z,2.87
2023-03-05T09:14:29.244Z,4.90
2023-03-05T09:16:57.216Z,2.33
2023-03-05T09:19:24.294Z,4.13
2023-03-05T09:21:50.969Z,8.13
2023-03-05T09:24:17.524Z,3.70
2023-03-05T09:26:44.210Z,2.53
2023-03-05T09:29:11.007Z,2.53
2023-03-05T09:31:37.699Z,1.50
2023-03-05T09:34:05.668Z,5.73
2023-03-05T09:36:33.245Z,13.83
2023-03-05T09:38:59.930Z,2.83
2023-03-05T09:42:03.538Z,10.40
2023-03-05T09:44:30.100Z,2.50
2023-03-05T09:47:08.564Z,1.80
2023-03-05T09:50:01.285Z,2.43
2023-03-05T09:52:41.244Z,4.23
2023-03-05T09:55:24.064Z,4.07
2023-03-05T09:57:57.076Z,3.37
2023-03-05T10:00:45.282Z,2.23
2023-03-05T10:03:22.327Z,2.30
2023-03-05T10:06:13.070Z,4.57
2023-03-05T10:09:03.974Z,5.03
2023-03-05T10:11:42.722Z,3.30
2023-03-05T10:14:18.113Z,3.80
2023-03-05T10:16:53.105Z,4.70
2023-03-05T10:19:32.274Z,3.00
2023-03-05T10:22:17.277Z,2.13
2023-03-05T10:24:49.745Z,3.20
2023-03-05T10:27:26.878Z,4.50
2023-03-05T10:30:13.801Z,2.33
2023-03-05T10:33:00.839Z,5.43
2023-03-05T10:35:40.808Z,2.13
2023-03-05T10:38:44.090Z,2.10
2023-03-05T10:41:24.466Z,1.90
2023-03-05T10:44:05.496Z,3.93
2023-03-05T10:46:35.921Z,2.30
2023-03-05T10:49:14.709Z,6.77
2023-03-05T10:51:50.370Z,10.30
2023-03-05T10:54:26.488Z,5.00
2023-03-05T10:57:17.304Z,4.10
2023-03-05T11:00:16.793Z,1.43
2023-03-05T11:02:58.978Z,1.63
2023-03-05T11:05:48.343Z,2.73
2023-03-05T11:08:27.023Z,1.83
2023-03-05T11:11:16.937Z,2.40
2023-03-05T11:13:54.396Z,4.53
2023-03-05T11:16:47.909Z,2.00
2023-03-05T11:19:37.656Z,1.73
2023-03-05T11:22:10.853Z,1.60
2023-03-05T11:24:37.704Z,6.23
2023-03-05T11:27:23.122Z,2.53
2023-03-05T11:29:50.452Z,4.40
2023-03-05T11:32:25.300Z,4.63
2023-03-05T11:34:52.716Z,3.20
2023-03-05T11:37:26.946Z,1.70
2023-03-05T11:40:18.059Z,1.33
2023-03-05T11:42:45.187Z,1.70
2023-03-05T11:45:18.515Z,2.07
2023-03-05T11:47:49.571Z,2.47
2023-03-05T11:50:16.223Z,1.10
2023-03-05T11:52:47.086Z,3.40
2023-03-05T11:55:20.464Z,2.07
2023-03-05T11:58:18.091Z,2.70
2023-03-05T12:00:47.137Z,1.63
2023-03-05T12:03:20.884Z,1.57
2023-03-05T12:05:54.369Z,2.40
2023-03-05T12:08:27.562Z,1.23
2023-03-05T12:10:54.881Z,3.33
2023-03-05T12:13:35.121Z,4.23
2023-03-05T12:16:20.083Z,1.93
2023-03-05T12:19:01.247Z,1.87
2023-03-05T12:21:27.788Z,2.63
2023-03-05T12:24:01.434Z,2.07
2023-03-05T12:26:52.944Z,1.53
2023-03-05T12:29:33.001Z,1.43
2023-03-05T12:32:01.475Z,1.67
2023-03-05T12:34:48.350Z,1.83
2023-03-05T12:37:34.860Z,2.40
2023-03-05T12:40:07.148Z,4.37
2023-03-05T12:42:33.708Z,1.57
2023-03-05T12:45:09.332Z,2.13
2023-03-05T12:47:39.289Z,2.20
2023-03-05T12:50:28.623Z,1.20
2023-03-05T12:52:59.840Z,11.13
2023-03-05T12:55:39.971Z,15.53
2023-03-05T12:58:12.909Z,6.50
2023-03-05T13:00:58.526Z,1.13
2023-03-05T13:03:34.178Z,2.40
2023-03-05T13:06:01.229Z,1.60
2023-03-05T13:08:32.695Z,1.47
2023-03-05T13:11:03.566Z,6.97
2023-03-05T13:13:35.166Z,3.00
2023-03-05T13:16:02.368Z,8.10
2023-03-05T13:18:32.876Z,3.67
2023-03-05T13:21:08.771Z,3.93
2023-03-05T13:23:35.964Z,2.73
2023-03-05T13:26:13.165Z,2.07
2023-03-05T13:28:40.063Z,3.03
2023-03-05T13:31:18.453Z,4.30
2023-03-05T13:33:55.685Z,3.13
2023-03-05T13:36:25.217Z,2.17
2023-03-05T13:38:52.661Z,2.07
2023-03-05T13:41:24.855Z,2.00
2023-03-05T13:43:52.640Z,6.73
2023-03-05T13:46:30.570Z,5.90
2023-03-05T13:48:59.222Z,4.50
2023-03-05T13:51:41.336Z,3.00
2023-03-05T13:54:10.935Z,5.53
2023-03-05T13:56:37.518Z,3.17
2023-03-05T13:59:05.513Z,5.83
2023-03-05T14:01:36.868Z,3.83
2023-03-05T14:04:17.791Z,2.37
2023-03-05T14:06:54.914Z,3.83
2023-03-05T14:09:30.978Z,2.00
2023-03-05T14:12:02.863Z,2.53
2023-03-05T14:14:34.257Z,2.70
2023-03-05T14:17:32.655Z,3.53
2023-03-05T14:20:11.325Z,2.20
2023-03-05T14:22:40.569Z,3.10
2023-03-05T14:25:27.082Z,1.50
2023-03-05T14:27:53.698Z,2.30
2023-03-05T14:30:22.503Z,2.00
2023-03-05T14:32:51.037Z,2.17
2023-03-05T14:35:20.911Z,2.30
2023-03-05T14:37:50.040Z,2.30
2023-03-05T14:40:22.207Z,9.87
2023-03-05T14:43:02.174Z,4.67
2023-03-05T14:45:40.851Z,4.10
2023-03-05T14:48:08.601Z,3.00
2023-03-05T14:50:51.542Z,2.20
2023-03-05T14:53:22.225Z,2.50
2023-03-05T14:55:51.216Z,2.33
2023-03-05T14:58:21.784Z,3.87
2023-03-05T15:00:51.092Z,1.93
2023-03-05T15:03:19.062Z,4.17
2023-03-05T15:05:48.439Z,2.93
2023-03-05T15:08:27.948Z,4.13
2023-03-05T15:10:55.382Z,1.73
2023-03-05T15:13:22.461Z,1.53
2023-03-05T15:15:51.550Z,1.53
2023-03-05T15:18:21.550Z,2.97
2023-03-05T15:20:54.197Z,2.10
2023-03-05T15:23:20.842Z,1.93
2023-03-05T15:25:47.764Z,3.20
2023-03-05T15:28:14.842Z,2.30
2023-03-05T15:30:45.866Z,2.23
2023-03-05T15:33:15.664Z,1.70
2023-03-05T15:35:42.900Z,2.30
2023-03-05T15:38:09.566Z,1.97
2023-03-05T15:40:36.231Z,6.47
2023-03-05T15:43:03.244Z,2.33
2023-03-05T15:45:31.436Z,2.73
2023-03-05T15:47:58.313Z,5.93
2023-03-05T15:50:25.037Z,5.33
2023-03-05T15:52:52.011Z,2.30
2023-03-05T15:55:19.068Z,3.53
2023-03-05T15:57:48.969Z,3.20
2023-03-05T16:00:18.008Z,3.57
2023-03-05T16:02:44.675Z,3.47
2023-03-05T16:05:11.610Z,6.73
2023-03-05T16:07:43.802Z,6.33
2023-03-05T16:10:17.537Z,5.97
2023-03-05T16:12:46.682Z,7.77
2023-03-05T16:15:19.287Z,4.63
2023-03-05T16:17:49.222Z,2.47
2023-03-05T16:20:16.472Z,3.90
2023-03-05T16:22:43.324Z,2.00
2023-03-05T16:25:10.395Z,3.93
2023-03-05T16:27:37.081Z,3.40
2023-03-05T16:30:05.507Z,2.50
2023-03-05T16:32:32.427Z,3.30
2023-03-05T16:34:59.185Z,5.30
2023-03-05T16:37:26.063Z,7.27
2023-03-05T16:39:52.694Z,4.67
2023-03-05T16:42:19.361Z,10.70
2023-03-05T16:44:47.406Z,13.80
2023-03-05T16:47:14.025Z,6.33
2023-03-05T16:49:40.785Z,6.70
2023-03-05T16:52:18.204Z,3.57
2023-03-05T16:54:45.620Z,6.10
2023-03-05T16:57:12.570Z,9.93
2023-03-05T16:59:39.214Z,8.30
2023-03-05T17:02:06.566Z,6.27
2023-03-05T17:04:33.419Z,13.53
2023-03-05T17:07:00.058Z,14.10
2023-03-05T17:09:26.714Z,17.40
2023-03-05T17:11:54.370Z,7.17
2023-03-05T17:14:21.114Z,7.00
2023-03-05T17:16:48.116Z,4.80
2023-03-05T17:19:15.635Z,6.57
2023-03-05T17:21:42.789Z,8.63
2023-03-05T17:24:12.102Z,7.00
2023-03-05T17:26:38.779Z,5.57
2023-03-05T17:29:06.231Z,4.93
2023-03-05T17:31:33.518Z,4.60
2023-03-05T17:34:00.463Z,4.80
2023-03-05T17:36:27.117Z,6.17
2023-03-05T17:38:53.895Z,3.87
2023-03-05T17:41:21.893Z,3.43
2023-03-05T17:43:49.428Z,4.80
2023-03-05T17:46:16.827Z,6.60
2023-03-05T17:48:43.876Z,3.73
2023-03-05T17:51:13.530Z,4.53
2023-03-05T17:53:40.747Z,5.57
2023-03-05T17:56:09.505Z,9.30
2023-03-05T17:58:36.492Z,7.97
2023-03-05T18:01:03.716Z,5.50
2023-03-05T18:03:30.671Z,7.50
2023-03-05T18:05:57.392Z,6.53
2023-03-05T18:08:24.174Z,11.07
2023-03-05T18:10:50.981Z,8.30
2023-03-05T18:13:17.804Z,7.10
2023-03-05T18:15:47.727Z,6.40
2023-03-05T18:18:16.146Z,6.17
2023-03-05T18:20:42.861Z,5.90
2023-03-05T18:23:09.981Z,5.07
2023-03-05T18:25:36.750Z,3.40
2023-03-05T18:28:08.151Z,5.80
2023-03-05T18:30:35.447Z,4.30
2023-03-05T18:33:02.125Z,3.90
2023-03-05T18:35:29.668Z,6.53
2023-03-05T18:37:57.366Z,3.50
2023-03-05T18:40:29.257Z,8.37
2023-03-05T18:42:55.919Z,3.63
2023-03-05T18:45:23.138Z,12.23
2023-03-05T18:47:54.006Z,6.53
2023-03-05T18:50:22.665Z,11.83
2023-03-05T18:52:49.364Z,11.63
2023-03-05T18:55:18.635Z,9.43
2023-03-05T18:57:45.427Z,6.43
2023-03-05T19:00:18.554Z,8.70
2023-03-05T19:02:45.173Z,11.63
2023-03-05T19:05:14.030Z,6.00
2023-03-05T19:07:41.032Z,7.13
2023-03-05T19:10:09.984Z,6.53
2023-03-05T19:12:45.502Z,9.27
2023-03-05T19:15:13.601Z,7.27
2023-03-05T19:17:40.512Z,12.50
2023-03-05T19:20:10.305Z,6.60
2023-03-05T19:22:36.902Z,10.40
2023-03-05T19:25:03.749Z,6.80
2023-03-05T19:27:30.366Z,8.40
2023-03-05T19:29:56.953Z,6.30
2023-03-05T19:32:24.051Z,5.60
2023-03-05T19:34:54.251Z,5.70
2023-03-05T19:37:20.900Z,6.43
2023-03-05T19:39:47.490Z,5.40
2023-03-05T19:42:14.273Z,7.00
2023-03-05T19:44:41.060Z,7.70
2023-03-05T19:47:08.004Z,5.93
2023-03-05T19:49:37.284Z,4.87
2023-03-05T19:52:06.180Z,5.67
2023-03-05T19:54:33.234Z,5.50
2023-03-05T19:57:00.156Z,5.63
2023-03-05T19:59:27.073Z,5.80
2023-03-05T20:01:53.838Z,7.73
2023-03-05T20:04:22.805Z,5.93
2023-03-05T20:06:49.834Z,8.40
2023-03-05T20:09:17.273Z,8.37
2023-03-05T20:11:44.602Z,5.70
2023-03-05T20:14:14.495Z,8.13
2023-03-05T20:16:43.264Z,5.33
2023-03-05T20:19:16.833Z,8.07
2023-03-05T20:21:44.734Z,6.60
2023-03-05T20:24:15.186Z,5.23
2023-03-05T20:26:43.985Z,6.50
2023-03-05T20:29:11.341Z,7.13
2023-03-05T20:31:39.162Z,7.10
2023-03-05T20:34:11.444Z,6.00
2023-03-05T20:36:38.358Z,6.20
2023-03-05T20:39:05.836Z,8.00
2023-03-05T20:41:33.869Z,5.80
2023-03-05T20:44:00.531Z,6.00
2023-03-05T20:46:29.039Z,7.63
2023-03-05T20:48:59.186Z,5.43
2023-03-05T20:51:31.704Z,5.60
2023-03-05T20:54:02.580Z,6.27
2023-03-05T20:56:32.251Z,5.17
2023-03-05T20:59:03.798Z,5.27
2023-03-05T21:01:33.014Z,4.10
2023-03-05T21:04:00.996Z,5.70
2023-03-05T21:06:29.049Z,6.07
2023-03-05T21:08:56.499Z,5.83
2023-03-05T21:11:23.286Z,7.10
2023-03-05T21:13:50.010Z,5.20
2023-03-05T21:16:24.270Z,6.10
2023-03-05T21:18:52.142Z,5.47
2023-03-05T21:21:19.406Z,8.87
2023-03-05T21:23:47.108Z,15.40
2023-03-05T21:26:14.397Z,7.03
2023-03-05T21:28:41.367Z,9.87
2023-03-05T21:31:16.978Z,9.60
2023-03-05T21:33:43.756Z,9.63
2023-03-05T21:36:10.596Z,6.80
2023-03-05T21:38:37.321Z,7.27
2023-03-05T21:41:07.375Z,7.47
2023-03-05T21:43:34.606Z,9.27
2023-03-05T21:46:03.183Z,5.93
2023-03-05T21:48:31.212Z,6.87
2023-03-05T21:50:58.611Z,8.67
2023-03-05T21:53:26.164Z,10.50
2023-03-05T21:56:03.782Z,11.47
2023-03-05T21:58:32.187Z,12.90
2023-03-05T22:00:59.489Z,10.73
2023-03-05T22:03:26.907Z,11.77
2023-03-05T22:05:54.318Z,10.73
2023-03-05T22:08:22.024Z,7.30
2023-03-05T22:10:48.748Z,8.97
2023-03-05T22:13:17.706Z,8.47
2023-03-05T22:15:47.340Z,10.13
2023-03-05T22:18:15.767Z,6.63
2023-03-05T22:20:42.790Z,9.90
2023-03-05T22:23:10.047Z,6.77
2023-03-05T22:25:37.328Z,8.80
2023-03-05T22:28:04.408Z,11.10
2023-03-05T22:30:32.174Z,8.03
2023-03-05T22:33:00.834Z,9.30
2023-03-05T22:35:28.070Z,10.80
2023-03-05T22:37:54.720Z,7.67
2023-03-05T22:40:22.931Z,7.03
2023-03-05T22:42:49.672Z,8.67
2023-03-05T22:45:18.090Z,11.07
2023-03-05T22:47:49.509Z,10.83
2023-03-05T22:50:17.871Z,7.63
2023-03-05T22:52:44.533Z,9.20
2023-03-05T22:55:13.694Z,8.60
2023-03-05T22:57:40.751Z,8.10
2023-03-05T23:00:13.484Z,10.40
2023-03-05T23:02:43.458Z,9.80
2023-03-05T23:05:11.336Z,9.70
2023-03-05T23:07:40.456Z,6.60
2023-03-05T23:10:19.117Z,8.70
2023-03-05T23:12:50.876Z,5.47
2023-03-05T23:15:20.866Z,10.23
2023-03-05T23:17:47.850Z,9.00
2023-03-05T23:20:19.588Z,9.50
2023-03-05T23:22:46.627Z,9.37
2023-03-05T23:25:15.548Z,16.70
2023-03-05T23:27:42.749Z,14.80
2023-03-05T23:30:18.454Z,9.80
2023-03-05T23:32:51.094Z,10.57
2023-03-05T23:35:21.607Z,11.67
2023-03-05T23:37:48.507Z,10.67
2023-03-05T23:40:20.952Z,9.70
2023-03-05T23:42:48.083Z,10.53
2023-03-05T23:45:16.693Z,9.00
2023-03-05T23:47:43.789Z,11.30
2023-03-05T23:50:17.633Z,7.30
2023-03-05T23:52:45.219Z,8.40
2023-03-05T23:55:17.912Z,7.73
2023-03-05T23:57:45.520Z,7.47
